Winslow, Arizona
Current Conditions -  °F | °C
As of 12:56 PM on Wednesday 28 Jan 2015 (Local Time) from KINW Reporting Station
Clear Clear  
Wind Chill: 56°   Ceiling: Unl
Heat Index: 56°   Visibility: 10mi
Dew Point: 39°   Wind: 5mph
Humidity: 53%   Direction: 340°NNW
Pressure: 30.25"   Gusts: NA
Location:  35.02°N, 110.69°W
Report Text: KINW 281956Z AUTO 34004KT 10SM CLR 13/04 A3025 RMK AO2 SLP224 T01330039 $
Loading
Personal Weather Stations






























Interactive Weather Map New forecast layout! Learn more

10-Day Weather Forecast

Advertisements
Track Severe Weather on mobile